Time,TemperatureF,DewpointF,PressureIn,WindDirection,WindDirectionDegrees,WindSpeedMPH,WindSpeedGustMPH,Humidity,HourlyPrecipIn,Conditions,Clouds,dailyrainin,SoftwareType,DateUTC
2013-06-13 00:10:00,67.2,66.0,29.70,ENE,73,0.0,2.0,95,0.02,,,0.00,weatherlink.com 1.10,2013-06-13 04:10:00,
2013-06-13 00:25:00,67.1,66.0,29.69,SE,143,0.0,4.0,96,0.02,,,0.00,weatherlink.com 1.10,2013-06-13 04:25:00,
2013-06-13 00:40:00,67.2,66.0,29.67,SSE,155,4.0,6.0,95,0.02,,,0.00,weatherlink.com 1.10,2013-06-13 04:40:00,
2013-06-13 00:55:00,67.5,66.0,29.67,SSE,168,2.0,8.0,95,0.01,,,0.00,weatherlink.com 1.10,2013-06-13 04:55:00,
2013-06-13 01:10:00,68.0,66.0,29.65,SE,136,3.0,9.0,94,0.00,,,0.00,weatherlink.com 1.10,2013-06-13 05:10:00,
2013-06-13 01:25:00,67.7,66.0,29.63,SE,142,3.0,4.0,94,0.00,,,0.00,weatherlink.com 1.10,2013-06-13 05:25:00,
2013-06-13 01:40:00,67.5,66.0,29.62,SSE,161,3.0,5.0,94,0.00,,,0.00,weatherlink.com 1.10,2013-06-13 05:40:00,
2013-06-13 01:55:00,67.5,66.0,29.62,SSE,166,2.0,8.0,93,0.00,,,0.00,weatherlink.com 1.10,2013-06-13 05:55:00,
2013-06-13 02:10:00,67.5,65.0,29.59,SSE,151,3.0,7.0,92,0.00,,,0.00,weatherlink.com 1.10,2013-06-13 06:10:00,
2013-06-13 02:25:00,67.1,65.0,29.57,SE,144,5.0,9.0,93,0.00,,,0.00,weatherlink.com 1.10,2013-06-13 06:25:00,
2013-06-13 02:40:00,67.2,65.0,29.57,SSE,147,2.0,5.0,92,0.00,,,0.00,weatherlink.com 1.10,2013-06-13 06:40:00,
2013-06-13 02:55:00,67.3,65.0,29.55,ESE,120,2.0,8.0,91,0.00,,,0.00,weatherlink.com 1.10,2013-06-13 06:55:00,
2013-06-13 03:11:00,67.1,65.0,29.55,SE,142,4.0,8.0,92,0.01,,,0.01,weatherlink.com 1.10,2013-06-13 07:11:00,
2013-06-13 03:26:00,66.9,65.0,29.53,SE,133,5.0,7.0,93,0.04,,,0.04,weatherlink.com 1.10,2013-06-13 07:26:00,
2013-06-13 03:41:00,66.7,65.0,29.57,West,281,3.0,6.0,95,0.19,,,0.19,weatherlink.com 1.10,2013-06-13 07:41:00,
2013-06-13 03:56:00,66.5,65.0,29.55,SSE,159,2.0,8.0,96,0.39,,,0.39,weatherlink.com 1.10,2013-06-13 07:56:00,
2013-06-13 04:11:00,66.7,65.0,29.52,SE,140,6.0,12.0,95,0.44,,,0.46,weatherlink.com 1.10,2013-06-13 08:11:00,
2013-06-13 04:26:00,66.5,65.0,29.47,ESE,121,5.0,13.0,96,0.47,,,0.51,weatherlink.com 1.10,2013-06-13 08:26:00,
2013-06-13 04:41:00,66.6,66.0,29.43,SE,142,9.0,12.0,96,0.31,,,0.51,weatherlink.com 1.10,2013-06-13 08:41:00,
2013-06-13 04:56:00,67.2,66.0,29.42,SE,144,8.0,12.0,96,0.12,,,0.51,weatherlink.com 1.10,2013-06-13 08:56:00,
2013-06-13 05:11:00,67.7,66.0,29.42,South,182,10.0,14.0,94,0.05,,,0.51,weatherlink.com 1.10,2013-06-13 09:11:00,
2013-06-13 05:26:00,67.5,66.0,29.44,SW,221,3.0,6.0,95,0.00,,,0.51,weatherlink.com 1.10,2013-06-13 09:26:00,
2013-06-13 05:41:00,67.1,66.0,29.43,SW,215,3.0,3.0,95,0.00,,,0.51,weatherlink.com 1.10,2013-06-13 09:41:00,
2013-06-13 05:56:00,66.8,65.0,29.43,SSW,210,3.0,9.0,95,0.00,,,0.51,weatherlink.com 1.10,2013-06-13 09:56:00,
2013-06-13 06:11:00,66.7,65.0,29.41,SSW,212,8.0,15.0,94,0.00,,,0.51,weatherlink.com 1.10,2013-06-13 10:11:00,
2013-06-13 06:26:00,66.6,65.0,29.42,SW,215,3.0,6.0,94,0.00,,,0.51,weatherlink.com 1.10,2013-06-13 10:26:00,
2013-06-13 06:41:00,66.5,65.0,29.40,SSE,163,4.0,9.0,93,0.00,,,0.51,weatherlink.com 1.10,2013-06-13 10:41:00,
2013-06-13 06:56:00,66.3,65.0,29.41,SSW,198,1.0,6.0,94,0.00,,,0.51,weatherlink.com 1.10,2013-06-13 10:56:00,
2013-06-13 07:11:00,66.2,65.0,29.41,South,179,4.0,9.0,94,0.00,,,0.51,weatherlink.com 1.10,2013-06-13 11:11:00,
2013-06-13 07:26:00,65.8,64.0,29.41,SSE,166,2.0,9.0,94,0.03,,,0.54,weatherlink.com 1.10,2013-06-13 11:26:00,
2013-06-13 07:41:00,65.4,64.0,29.41,SE,142,0.0,5.0,95,0.05,,,0.56,weatherlink.com 1.10,2013-06-13 11:41:00,
2013-06-13 07:56:00,65.3,64.0,29.41,North,5,2.0,3.0,95,0.05,,,0.56,weatherlink.com 1.10,2013-06-13 11:56:00,
2013-06-13 08:11:00,63.7,62.0,29.42,North,355,11.0,13.0,94,0.07,,,0.58,weatherlink.com 1.10,2013-06-13 12:11:00,
2013-06-13 08:26:00,61.0,60.0,29.43,NE,44,7.0,12.0,95,0.05,,,0.59,weatherlink.com 1.10,2013-06-13 12:26:00,
2013-06-13 08:41:00,59.6,59.0,29.46,NE,53,8.0,15.0,96,0.04,,,0.60,weatherlink.com 1.10,2013-06-13 12:41:00,
2013-06-13 08:56:00,58.6,58.0,29.47,NNE,17,7.0,16.0,96,0.06,,,0.62,weatherlink.com 1.10,2013-06-13 12:56:00,
2013-06-13 09:11:00,58.3,58.0,29.49,North,9,10.0,17.0,97,0.05,,,0.63,weatherlink.com 1.10,2013-06-13 13:11:00,
2013-06-13 09:26:00,58.0,57.0,29.50,NNW,348,7.0,15.0,97,0.07,,,0.66,weatherlink.com 1.10,2013-06-13 13:26:00,
2013-06-13 09:41:00,58.1,57.0,29.52,NNW,343,3.0,12.0,97,0.06,,,0.66,weatherlink.com 1.10,2013-06-13 13:41:00,
2013-06-13 09:56:00,58.4,58.0,29.52,WNW,297,11.0,13.0,97,0.04,,,0.66,weatherlink.com 1.10,2013-06-13 13:56:00,
2013-06-13 12:41:00,60.3,59.0,29.60,NNW,338,4.0,7.0,96,0.01,,,0.68,weatherlink.com 1.10,2013-06-13 16:41:00,
2013-06-13 12:57:00,60.5,59.0,29.61,WNW,296,1.0,6.0,96,0.01,,,0.68,weatherlink.com 1.10,2013-06-13 16:57:00,
2013-06-13 13:12:00,60.6,60.0,29.62,North,349,4.0,6.0,96,0.01,,,0.68,weatherlink.com 1.10,2013-06-13 17:12:00,
2013-06-13 13:27:00,60.7,59.0,29.63,NW,315,3.0,8.0,95,0.00,,,0.68,weatherlink.com 1.10,2013-06-13 17:27:00,
2013-06-13 13:42:00,60.5,59.0,29.63,NNW,330,2.0,6.0,96,0.00,,,0.68,weatherlink.com 1.10,2013-06-13 17:42:00,
2013-06-13 13:57:00,60.2,59.0,29.64,NW,309,3.0,6.0,95,0.00,,,0.68,weatherlink.com 1.10,2013-06-13 17:57:00,
2013-06-13 14:12:00,60.1,59.0,29.65,NW,312,6.0,8.0,96,0.00,,,0.68,weatherlink.com 1.10,2013-06-13 18:12:00,
2013-06-13 14:27:00,60.4,59.0,29.66,NW,323,2.0,6.0,96,0.00,,,0.68,weatherlink.com 1.10,2013-06-13 18:27:00,
2013-06-13 14:42:00,61.3,60.0,29.66,WNW,293,1.0,4.0,96,0.00,,,0.68,weatherlink.com 1.10,2013-06-13 18:42:00,
2013-06-13 14:57:00,63.1,61.0,29.66,NNW,340,4.0,8.0,93,0.00,,,0.68,weatherlink.com 1.10,2013-06-13 18:57:00,
2013-06-13 15:12:00,64.0,61.0,29.67,North,5,3.0,7.0,90,0.00,,,0.68,weatherlink.com 1.10,2013-06-13 19:12:00,
2013-06-13 15:27:00,65.7,62.0,29.66,North,11,5.0,11.0,86,0.00,,,0.68,weatherlink.com 1.10,2013-06-13 19:27:00,
2013-06-13 15:42:00,66.5,62.0,29.66,NE,46,8.0,10.0,84,0.00,,,0.68,weatherlink.com 1.10,2013-06-13 19:42:00,
2013-06-13 15:57:00,66.8,62.0,29.67,NE,47,11.0,12.0,83,0.00,,,0.68,weatherlink.com 1.10,2013-06-13 19:57:00,
2013-06-13 16:12:00,67.1,60.0,29.68,NE,49,8.0,10.0,79,0.01,,,0.69,weatherlink.com 1.10,2013-06-13 20:12:00,
2013-06-13 16:27:00,66.1,60.0,29.68,NNE,12,2.0,9.0,81,0.01,,,0.69,weatherlink.com 1.10,2013-06-13 20:27:00,
2013-06-13 16:42:00,66.7,61.0,29.68,NE,37,3.0,9.0,82,0.01,,,0.69,weatherlink.com 1.10,2013-06-13 20:42:00,
2013-06-13 16:57:00,65.3,60.0,29.68,NNE,19,5.0,9.0,82,0.00,,,0.69,weatherlink.com 1.10,2013-06-13 20:57:00,
2013-06-13 17:12:00,64.9,59.0,29.69,NE,34,7.0,11.0,81,0.00,,,0.69,weatherlink.com 1.10,2013-06-13 21:12:00,
2013-06-13 17:27:00,62.9,58.0,29.70,North,11,4.0,12.0,83,0.00,,,0.69,weatherlink.com 1.10,2013-06-13 21:27:00,
2013-06-13 17:42:00,62.2,58.0,29.70,NNE,22,5.0,11.0,85,0.00,,,0.69,weatherlink.com 1.10,2013-06-13 21:42:00,
2013-06-13 17:57:00,61.7,58.0,29.70,NE,47,4.0,8.0,86,0.00,,,0.69,weatherlink.com 1.10,2013-06-13 21:57:00,
2013-06-13 18:12:00,61.7,58.0,29.71,NNE,28,2.0,8.0,86,0.00,,,0.69,weatherlink.com 1.10,2013-06-13 22:12:00,
2013-06-13 18:27:00,61.4,57.0,29.71,NE,38,6.0,9.0,86,0.00,,,0.69,weatherlink.com 1.10,2013-06-13 22:27:00,
2013-06-13 18:42:00,61.5,58.0,29.72,North,351,2.0,6.0,87,0.00,,,0.69,weatherlink.com 1.10,2013-06-13 22:42:00,
2013-06-13 18:57:00,61.6,58.0,29.72,WNW,303,3.0,4.0,87,0.00,,,0.69,weatherlink.com 1.10,2013-06-13 22:57:00,
2013-06-13 19:12:00,61.0,58.0,29.73,NNW,336,2.0,6.0,88,0.00,,,0.69,weatherlink.com 1.10,2013-06-13 23:12:00,
2013-06-13 19:27:00,60.7,57.0,29.74,NW,326,0.0,4.0,88,0.00,,,0.69,weatherlink.com 1.10,2013-06-13 23:27:00,
2013-06-13 19:42:00,60.7,57.0,29.75,West,281,0.0,5.0,88,0.00,,,0.69,weatherlink.com 1.10,2013-06-13 23:42:00,
2013-06-13 19:57:00,60.9,57.0,29.75,NW,313,3.0,4.0,88,0.00,,,0.69,weatherlink.com 1.10,2013-06-13 23:57:00,
2013-06-13 20:12:00,61.0,57.0,29.76,NW,311,2.0,2.0,87,0.00,,,0.69,weatherlink.com 1.10,2013-06-14 00:12:00,
2013-06-13 20:27:00,60.5,58.0,29.77,WNW,282,0.0,3.0,90,0.00,,,0.69,weatherlink.com 1.10,2013-06-14 00:27:00,
2013-06-13 20:42:00,59.9,57.0,29.77,WNW,296,2.0,3.0,91,0.00,,,0.69,weatherlink.com 1.10,2013-06-14 00:42:00,
2013-06-13 20:57:00,59.3,57.0,29.78,West,269,1.0,3.0,93,0.02,,,0.71,weatherlink.com 1.10,2013-06-14 00:57:00,
2013-06-13 21:12:00,58.7,57.0,29.78,WNW,290,1.0,4.0,94,0.02,,,0.71,weatherlink.com 1.10,2013-06-14 01:12:00,
2013-06-13 21:27:00,58.4,57.0,29.79,WNW,290,0.0,2.0,94,0.02,,,0.71,weatherlink.com 1.10,2013-06-14 01:27:00,
2013-06-13 21:42:00,57.9,56.0,29.79,WNW,284,0.0,3.0,94,0.02,,,0.71,weatherlink.com 1.10,2013-06-14 01:42:00,
2013-06-13 21:57:00,57.6,56.0,29.79,WNW,283,0.0,3.0,95,0.00,,,0.71,weatherlink.com 1.10,2013-06-14 01:57:00,
2013-06-13 22:12:00,57.7,57.0,29.79,WNW,288,0.0,3.0,96,0.00,,,0.71,weatherlink.com 1.10,2013-06-14 02:12:00,
2013-06-13 22:27:00,57.7,57.0,29.79,WNW,288,0.0,2.0,96,0.00,,,0.71,weatherlink.com 1.10,2013-06-14 02:27:00,
2013-06-13 22:42:00,57.7,57.0,29.80,WNW,288,0.0,1.0,96,0.00,,,0.71,weatherlink.com 1.10,2013-06-14 02:42:00,
2013-06-13 22:57:00,57.6,57.0,29.80,WNW,288,0.0,1.0,96,0.00,,,0.71,weatherlink.com 1.10,2013-06-14 02:57:00,
2013-06-13 23:12:00,57.4,56.0,29.80,WNW,288,0.0,1.0,96,0.00,,,0.71,weatherlink.com 1.10,2013-06-14 03:12:00,
2013-06-13 23:27:00,57.4,56.0,29.80,WNW,288,0.0,2.0,96,0.00,,,0.71,weatherlink.com 1.10,2013-06-14 03:27:00,
2013-06-13 23:42:00,57.3,56.0,29.80,West,278,2.0,4.0,96,0.00,,,0.71,weatherlink.com 1.10,2013-06-14 03:42:00,
2013-06-13 23:57:00,57.0,56.0,29.80,West,278,0.0,1.0,96,0.00,,,0.71,weatherlink.com 1.10,2013-06-14 03:57:00,